sensor_id;sensor_type;location;lat;lon;timestamp;P1;durP1;ratioP1;P2;durP2;ratioP2
26718;SDS011;14326;50.794;6.060;2023-04-08T00:06:15;34.95;;;13.57;;
26718;SDS011;14326;50.794;6.060;2023-04-08T00:08:42;32.50;;;13.80;;
26718;SDS011;14326;50.794;6.060;2023-04-08T00:11:23;32.80;;;12.52;;
26718;SDS011;14326;50.794;6.060;2023-04-08T00:14:45;34.80;;;13.88;;
26718;SDS011;14326;50.794;6.060;2023-04-08T00:17:28;38.55;;;12.82;;
26718;SDS011;14326;50.794;6.060;2023-04-08T00:20:21;38.17;;;13.38;;
26718;SDS011;14326;50.794;6.060;2023-04-08T00:23:10;29.67;;;13.48;;
26718;SDS011;14326;50.794;6.060;2023-04-08T00:26:03;32.60;;;14.27;;
26718;SDS011;14326;50.794;6.060;2023-04-08T00:28:50;36.00;;;13.90;;
26718;SDS011;14326;50.794;6.060;2023-04-08T00:31:30;34.42;;;13.98;;
26718;SDS011;14326;50.794;6.060;2023-04-08T00:34:25;31.55;;;13.30;;
26718;SDS011;14326;50.794;6.060;2023-04-08T00:37:22;30.85;;;12.98;;
26718;SDS011;14326;50.794;6.060;2023-04-08T00:40:25;37.97;;;15.30;;
26718;SDS011;14326;50.794;6.060;2023-04-08T00:43:01;32.45;;;13.82;;
26718;SDS011;14326;50.794;6.060;2023-04-08T00:45:28;32.60;;;15.05;;
26718;SDS011;14326;50.794;6.060;2023-04-08T00:48:00;33.38;;;14.73;;
26718;SDS011;14326;50.794;6.060;2023-04-08T00:50:41;37.55;;;14.88;;
26718;SDS011;14326;50.794;6.060;2023-04-08T00:56:27;36.63;;;15.52;;
26718;SDS011;14326;50.794;6.060;2023-04-08T00:59:45;31.20;;;14.38;;
26718;SDS011;14326;50.794;6.060;2023-04-08T01:02:34;32.08;;;14.05;;
26718;SDS011;14326;50.794;6.060;2023-04-08T01:05:19;35.58;;;15.20;;
26718;SDS011;14326;50.794;6.060;2023-04-08T01:07:58;36.20;;;16.25;;
26718;SDS011;14326;50.794;6.060;2023-04-08T01:10:53;35.05;;;15.27;;
26718;SDS011;14326;50.794;6.060;2023-04-08T01:13:29;35.08;;;14.93;;
26718;SDS011;14326;50.794;6.060;2023-04-08T01:16:15;36.55;;;15.20;;
26718;SDS011;14326;50.794;6.060;2023-04-08T01:18:59;36.08;;;14.98;;
26718;SDS011;14326;50.794;6.060;2023-04-08T01:21:36;36.92;;;15.25;;
26718;SDS011;14326;50.794;6.060;2023-04-08T01:24:24;39.20;;;15.45;;
26718;SDS011;14326;50.794;6.060;2023-04-08T01:30:25;36.70;;;14.25;;
26718;SDS011;14326;50.794;6.060;2023-04-08T01:33:12;38.72;;;14.93;;
26718;SDS011;14326;50.794;6.060;2023-04-08T01:35:54;32.30;;;14.32;;
26718;SDS011;14326;50.794;6.060;2023-04-08T01:38:40;37.88;;;14.85;;
26718;SDS011;14326;50.794;6.060;2023-04-08T01:41:35;35.40;;;14.50;;
26718;SDS011;14326;50.794;6.060;2023-04-08T01:47:36;36.72;;;15.18;;
26718;SDS011;14326;50.794;6.060;2023-04-08T01:50:48;38.05;;;15.38;;
26718;SDS011;14326;50.794;6.060;2023-04-08T01:56:54;34.40;;;13.02;;
26718;SDS011;14326;50.794;6.060;2023-04-08T02:02:51;37.72;;;16.20;;
26718;SDS011;14326;50.794;6.060;2023-04-08T02:05:29;39.30;;;14.65;;
26718;SDS011;14326;50.794;6.060;2023-04-08T02:08:05;32.53;;;14.35;;
26718;SDS011;14326;50.794;6.060;2023-04-08T02:10:32;44.15;;;16.42;;
26718;SDS011;14326;50.794;6.060;2023-04-08T02:13:08;34.65;;;14.23;;
26718;SDS011;14326;50.794;6.060;2023-04-08T02:19:06;35.97;;;15.60;;
26718;SDS011;14326;50.794;6.060;2023-04-08T02:21:56;36.50;;;14.55;;
26718;SDS011;14326;50.794;6.060;2023-04-08T02:24:53;40.17;;;15.15;;
26718;SDS011;14326;50.794;6.060;2023-04-08T02:27:31;34.17;;;16.30;;
26718;SDS011;14326;50.794;6.060;2023-04-08T02:30:19;37.00;;;15.02;;
26718;SDS011;14326;50.794;6.060;2023-04-08T02:32:56;35.95;;;15.10;;
26718;SDS011;14326;50.794;6.060;2023-04-08T02:35:53;35.47;;;16.27;;
26718;SDS011;14326;50.794;6.060;2023-04-08T02:44:52;33.72;;;14.48;;
26718;SDS011;14326;50.794;6.060;2023-04-08T02:50:20;36.17;;;14.77;;
26718;SDS011;14326;50.794;6.060;2023-04-08T02:52:51;43.78;;;16.08;;
26718;SDS011;14326;50.794;6.060;2023-04-08T02:55:27;36.47;;;15.30;;
26718;SDS011;14326;50.794;6.060;2023-04-08T02:58:01;33.20;;;16.25;;
26718;SDS011;14326;50.794;6.060;2023-04-08T03:00:46;37.45;;;15.13;;
26718;SDS011;14326;50.794;6.060;2023-04-08T03:03:22;36.57;;;15.67;;
26718;SDS011;14326;50.794;6.060;2023-04-08T03:08:35;33.53;;;14.57;;
26718;SDS011;14326;50.794;6.060;2023-04-08T03:11:05;33.60;;;14.10;;
26718;SDS011;14326;50.794;6.060;2023-04-08T03:13:32;43.72;;;16.70;;
26718;SDS011;14326;50.794;6.060;2023-04-08T03:19:00;38.45;;;16.10;;
26718;SDS011;14326;50.794;6.060;2023-04-08T03:21:35;36.97;;;16.42;;
26718;SDS011;14326;50.794;6.060;2023-04-08T03:24:30;38.38;;;16.80;;
26718;SDS011;14326;50.794;6.060;2023-04-08T03:27:12;34.90;;;15.93;;
26718;SDS011;14326;50.794;6.060;2023-04-08T03:29:58;38.15;;;16.25;;
26718;SDS011;14326;50.794;6.060;2023-04-08T03:32:40;36.92;;;16.13;;
26718;SDS011;14326;50.794;6.060;2023-04-08T03:35:33;37.08;;;17.20;;
26718;SDS011;14326;50.794;6.060;2023-04-08T03:38:31;35.30;;;16.30;;
26718;SDS011;14326;50.794;6.060;2023-04-08T03:41:19;39.35;;;16.48;;
26718;SDS011;14326;50.794;6.060;2023-04-08T03:44:12;40.97;;;17.25;;
26718;SDS011;14326;50.794;6.060;2023-04-08T03:46:49;35.10;;;15.65;;
26718;SDS011;14326;50.794;6.060;2023-04-08T03:49:16;38.38;;;16.45;;
26718;SDS011;14326;50.794;6.060;2023-04-08T03:51:43;38.50;;;16.35;;
26718;SDS011;14326;50.794;6.060;2023-04-08T03:54:17;47.13;;;18.23;;
26718;SDS011;14326;50.794;6.060;2023-04-08T03:57:10;47.10;;;19.80;;
26718;SDS011;14326;50.794;6.060;2023-04-08T03:59:56;41.67;;;17.80;;
26718;SDS011;14326;50.794;6.060;2023-04-08T04:05:39;37.08;;;18.60;;
26718;SDS011;14326;50.794;6.060;2023-04-08T04:08:22;40.92;;;17.13;;
26718;SDS011;14326;50.794;6.060;2023-04-08T04:10:48;45.83;;;18.02;;
26718;SDS011;14326;50.794;6.060;2023-04-08T04:13:36;47.13;;;19.13;;
26718;SDS011;14326;50.794;6.060;2023-04-08T04:16:11;43.28;;;19.15;;
26718;SDS011;14326;50.794;6.060;2023-04-08T04:18:56;44.95;;;17.70;;
26718;SDS011;14326;50.794;6.060;2023-04-08T04:21:25;44.58;;;17.40;;
26718;SDS011;14326;50.794;6.060;2023-04-08T04:23:52;36.33;;;17.30;;
26718;SDS011;14326;50.794;6.060;2023-04-08T04:26:21;41.70;;;17.05;;
26718;SDS011;14326;50.794;6.060;2023-04-08T04:29:19;42.22;;;18.38;;
26718;SDS011;14326;50.794;6.060;2023-04-08T04:32:06;42.85;;;18.17;;
26718;SDS011;14326;50.794;6.060;2023-04-08T04:34:33;51.03;;;18.75;;
26718;SDS011;14326;50.794;6.060;2023-04-08T04:37:04;39.38;;;17.42;;
26718;SDS011;14326;50.794;6.060;2023-04-08T04:39:36;36.60;;;17.55;;
26718;SDS011;14326;50.794;6.060;2023-04-08T04:42:24;43.00;;;18.27;;
26718;SDS011;14326;50.794;6.060;2023-04-08T04:44:58;40.33;;;16.40;;
26718;SDS011;14326;50.794;6.060;2023-04-08T04:47:25;38.25;;;16.50;;
26718;SDS011;14326;50.794;6.060;2023-04-08T04:49:51;44.40;;;17.40;;
26718;SDS011;14326;50.794;6.060;2023-04-08T04:52:18;42.67;;;17.90;;
26718;SDS011;14326;50.794;6.060;2023-04-08T04:54:45;43.05;;;17.35;;
26718;SDS011;14326;50.794;6.060;2023-04-08T04:57:11;38.30;;;17.42;;
26718;SDS011;14326;50.794;6.060;2023-04-08T04:59:49;41.28;;;18.77;;
26718;SDS011;14326;50.794;6.060;2023-04-08T05:05:47;46.25;;;16.27;;
26718;SDS011;14326;50.794;6.060;2023-04-08T05:08:44;40.72;;;16.65;;
26718;SDS011;14326;50.794;6.060;2023-04-08T05:11:23;41.33;;;17.38;;
26718;SDS011;14326;50.794;6.060;2023-04-08T05:13:55;38.38;;;16.42;;
26718;SDS011;14326;50.794;6.060;2023-04-08T05:16:42;40.65;;;17.27;;
26718;SDS011;14326;50.794;6.060;2023-04-08T05:22:15;44.05;;;18.25;;
26718;SDS011;14326;50.794;6.060;2023-04-08T05:25:06;39.50;;;17.65;;
26718;SDS011;14326;50.794;6.060;2023-04-08T05:27:42;35.20;;;16.00;;
26718;SDS011;14326;50.794;6.060;2023-04-08T05:30:25;40.33;;;17.08;;
26718;SDS011;14326;50.794;6.060;2023-04-08T05:32:52;41.92;;;17.10;;
26718;SDS011;14326;50.794;6.060;2023-04-08T05:35:45;33.55;;;16.23;;
26718;SDS011;14326;50.794;6.060;2023-04-08T05:41:33;38.80;;;16.95;;
26718;SDS011;14326;50.794;6.060;2023-04-08T05:44:30;40.72;;;16.88;;
26718;SDS011;14326;50.794;6.060;2023-04-08T05:47:10;38.92;;;16.90;;
26718;SDS011;14326;50.794;6.060;2023-04-08T05:49:46;44.25;;;17.65;;
26718;SDS011;14326;50.794;6.060;2023-04-08T05:52:32;43.38;;;16.30;;
26718;SDS011;14326;50.794;6.060;2023-04-08T05:55:00;40.28;;;17.17;;
26718;SDS011;14326;50.794;6.060;2023-04-08T05:57:34;49.22;;;18.05;;
26718;SDS011;14326;50.794;6.060;2023-04-08T06:03:08;37.53;;;18.27;;
26718;SDS011;14326;50.794;6.060;2023-04-08T06:05:46;47.50;;;18.40;;
26718;SDS011;14326;50.794;6.060;2023-04-08T06:08:26;47.08;;;19.70;;
26718;SDS011;14326;50.794;6.060;2023-04-08T06:10:54;49.58;;;19.05;;
26718;SDS011;14326;50.794;6.060;2023-04-08T06:13:30;53.13;;;20.38;;
26718;SDS011;14326;50.794;6.060;2023-04-08T06:16:19;50.00;;;19.10;;
26718;SDS011;14326;50.794;6.060;2023-04-08T06:19:12;53.95;;;19.15;;
26718;SDS011;14326;50.794;6.060;2023-04-08T06:21:39;50.10;;;19.83;;
26718;SDS011;14326;50.794;6.060;2023-04-08T06:24:06;53.00;;;20.52;;
26718;SDS011;14326;50.794;6.060;2023-04-08T06:26:34;54.55;;;20.83;;
26718;SDS011;14326;50.794;6.060;2023-04-08T06:29:03;52.22;;;21.30;;
26718;SDS011;14326;50.794;6.060;2023-04-08T06:31:33;50.83;;;20.30;;
26718;SDS011;14326;50.794;6.060;2023-04-08T06:34:08;50.25;;;21.02;;
26718;SDS011;14326;50.794;6.060;2023-04-08T06:36:49;59.05;;;21.67;;
26718;SDS011;14326;50.794;6.060;2023-04-08T06:39:31;59.80;;;23.10;;
26718;SDS011;14326;50.794;6.060;2023-04-08T06:41:59;53.22;;;21.08;;
26718;SDS011;14326;50.794;6.060;2023-04-08T06:44:28;53.50;;;21.83;;
26718;SDS011;14326;50.794;6.060;2023-04-08T06:47:07;47.78;;;20.95;;
26718;SDS011;14326;50.794;6.060;2023-04-08T06:55:20;58.40;;;21.40;;
26718;SDS011;14326;50.794;6.060;2023-04-08T06:57:48;54.05;;;21.77;;
26718;SDS011;14326;50.794;6.060;2023-04-08T07:00:16;45.83;;;21.75;;
26718;SDS011;14326;50.794;6.060;2023-04-08T07:06:04;54.30;;;21.15;;
26718;SDS011;14326;50.794;6.060;2023-04-08T07:08:37;57.13;;;22.05;;
26718;SDS011;14326;50.794;6.060;2023-04-08T07:11:07;40.03;;;16.98;;
26718;SDS011;14326;50.794;6.060;2023-04-08T07:13:35;57.08;;;21.95;;
26718;SDS011;14326;50.794;6.060;2023-04-08T07:16:01;51.53;;;20.30;;
26718;SDS011;14326;50.794;6.060;2023-04-08T07:18:31;52.13;;;21.48;;
26718;SDS011;14326;50.794;6.060;2023-04-08T07:21:26;52.42;;;20.30;;
26718;SDS011;14326;50.794;6.060;2023-04-08T07:24:12;52.05;;;20.50;;
26718;SDS011;14326;50.794;6.060;2023-04-08T07:26:49;55.67;;;20.27;;
26718;SDS011;14326;50.794;6.060;2023-04-08T07:29:31;50.65;;;19.10;;
26718;SDS011;14326;50.794;6.060;2023-04-08T07:32:20;54.00;;;18.70;;
26718;SDS011;14326;50.794;6.060;2023-04-08T07:37:30;47.65;;;19.42;;
26718;SDS011;14326;50.794;6.060;2023-04-08T07:40:03;48.53;;;18.83;;
26718;SDS011;14326;50.794;6.060;2023-04-08T07:42:37;53.63;;;20.27;;
26718;SDS011;14326;50.794;6.060;2023-04-08T07:45:08;49.33;;;20.05;;
26718;SDS011;14326;50.794;6.060;2023-04-08T07:47:35;46.50;;;19.47;;
26718;SDS011;14326;50.794;6.060;2023-04-08T07:50:02;45.53;;;18.23;;
26718;SDS011;14326;50.794;6.060;2023-04-08T07:52:30;49.75;;;18.45;;
26718;SDS011;14326;50.794;6.060;2023-04-08T07:54:56;42.38;;;17.65;;
26718;SDS011;14326;50.794;6.060;2023-04-08T07:57:23;40.53;;;17.77;;
26718;SDS011;14326;50.794;6.060;2023-04-08T07:59:50;43.03;;;17.55;;
26718;SDS011;14326;50.794;6.060;2023-04-08T08:02:19;53.85;;;23.30;;
26718;SDS011;14326;50.794;6.060;2023-04-08T08:04:45;42.03;;;18.48;;
26718;SDS011;14326;50.794;6.060;2023-04-08T08:07:12;48.45;;;20.25;;
26718;SDS011;14326;50.794;6.060;2023-04-08T08:09:50;45.33;;;18.33;;
26718;SDS011;14326;50.794;6.060;2023-04-08T08:12:25;41.55;;;17.75;;
26718;SDS011;14326;50.794;6.060;2023-04-08T08:15:08;40.72;;;17.38;;
26718;SDS011;14326;50.794;6.060;2023-04-08T08:17:51;36.75;;;16.27;;
26718;SDS011;14326;50.794;6.060;2023-04-08T08:20:43;40.20;;;16.00;;
26718;SDS011;14326;50.794;6.060;2023-04-08T08:23:28;33.45;;;15.00;;
26718;SDS011;14326;50.794;6.060;2023-04-08T08:26:00;36.13;;;15.77;;
26718;SDS011;14326;50.794;6.060;2023-04-08T08:28:45;39.60;;;16.23;;
26718;SDS011;14326;50.794;6.060;2023-04-08T08:31:14;39.53;;;17.23;;
26718;SDS011;14326;50.794;6.060;2023-04-08T08:33:48;35.60;;;16.52;;
26718;SDS011;14326;50.794;6.060;2023-04-08T08:39:02;37.47;;;17.15;;
26718;SDS011;14326;50.794;6.060;2023-04-08T08:41:32;39.42;;;18.33;;
26718;SDS011;14326;50.794;6.060;2023-04-08T08:44:06;41.38;;;18.63;;
26718;SDS011;14326;50.794;6.060;2023-04-08T08:46:55;40.60;;;19.33;;
26718;SDS011;14326;50.794;6.060;2023-04-08T08:49:27;42.55;;;19.00;;
26718;SDS011;14326;50.794;6.060;2023-04-08T08:55:14;44.42;;;20.50;;
26718;SDS011;14326;50.794;6.060;2023-04-08T08:58:04;42.55;;;20.73;;
26718;SDS011;14326;50.794;6.060;2023-04-08T09:00:37;47.13;;;21.52;;
26718;SDS011;14326;50.794;6.060;2023-04-08T09:03:14;42.47;;;20.17;;
26718;SDS011;14326;50.794;6.060;2023-04-08T09:05:50;45.28;;;22.60;;
26718;SDS011;14326;50.794;6.060;2023-04-08T09:11:21;45.60;;;21.58;;
26718;SDS011;14326;50.794;6.060;2023-04-08T09:13:58;46.28;;;21.88;;
26718;SDS011;14326;50.794;6.060;2023-04-08T09:16:52;49.58;;;23.92;;
26718;SDS011;14326;50.794;6.060;2023-04-08T09:19:22;52.75;;;24.40;;
26718;SDS011;14326;50.794;6.060;2023-04-08T09:22:07;50.55;;;22.98;;
26718;SDS011;14326;50.794;6.060;2023-04-08T09:25:22;52.75;;;24.20;;
26718;SDS011;14326;50.794;6.060;2023-04-08T09:28:17;49.50;;;23.45;;
26718;SDS011;14326;50.794;6.060;2023-04-08T09:30:53;47.47;;;24.30;;
26718;SDS011;14326;50.794;6.060;2023-04-08T09:33:30;53.78;;;25.73;;
26718;SDS011;14326;50.794;6.060;2023-04-08T09:36:15;52.65;;;24.50;;
26718;SDS011;14326;50.794;6.060;2023-04-08T09:38:56;50.70;;;24.52;;
26718;SDS011;14326;50.794;6.060;2023-04-08T09:41:36;49.92;;;24.48;;
26718;SDS011;14326;50.794;6.060;2023-04-08T09:44:16;49.22;;;23.10;;
26718;SDS011;14326;50.794;6.060;2023-04-08T09:47:01;50.33;;;24.33;;
26718;SDS011;14326;50.794;6.060;2023-04-08T09:50:04;52.40;;;24.17;;
26718;SDS011;14326;50.794;6.060;2023-04-08T09:56:24;52.40;;;25.10;;
26718;SDS011;14326;50.794;6.060;2023-04-08T09:59:12;51.65;;;24.88;;
26718;SDS011;14326;50.794;6.060;2023-04-08T10:01:50;50.30;;;23.60;;
26718;SDS011;14326;50.794;6.060;2023-04-08T10:04:51;49.85;;;24.10;;
26718;SDS011;14326;50.794;6.060;2023-04-08T10:07:20;49.70;;;23.15;;
26718;SDS011;14326;50.794;6.060;2023-04-08T10:10:09;45.75;;;22.40;;
26718;SDS011;14326;50.794;6.060;2023-04-08T10:13:00;45.88;;;22.20;;
26718;SDS011;14326;50.794;6.060;2023-04-08T10:15:37;41.65;;;21.58;;
26718;SDS011;14326;50.794;6.060;2023-04-08T10:21:34;47.60;;;22.40;;
26718;SDS011;14326;50.794;6.060;2023-04-08T10:24:30;42.03;;;20.95;;
26718;SDS011;14326;50.794;6.060;2023-04-08T10:27:09;55.88;;;27.23;;
26718;SDS011;14326;50.794;6.060;2023-04-08T10:33:38;49.63;;;23.55;;
26718;SDS011;14326;50.794;6.060;2023-04-08T10:36:13;46.28;;;23.67;;
26718;SDS011;14326;50.794;6.060;2023-04-08T10:38:43;39.60;;;18.15;;
26718;SDS011;14326;50.794;6.060;2023-04-08T10:41:13;44.30;;;23.08;;
26718;SDS011;14326;50.794;6.060;2023-04-08T10:43:52;45.65;;;23.70;;
26718;SDS011;14326;50.794;6.060;2023-04-08T10:49:32;41.35;;;21.67;;
26718;SDS011;14326;50.794;6.060;2023-04-08T10:55:10;40.55;;;20.85;;
26718;SDS011;14326;50.794;6.060;2023-04-08T10:57:50;39.53;;;21.25;;
26718;SDS011;14326;50.794;6.060;2023-04-08T11:00:30;44.17;;;21.33;;
26718;SDS011;14326;50.794;6.060;2023-04-08T11:02:59;40.95;;;19.90;;
26718;SDS011;14326;50.794;6.060;2023-04-08T11:05:35;39.85;;;21.13;;
26718;SDS011;14326;50.794;6.060;2023-04-08T11:08:07;40.65;;;20.60;;
26718;SDS011;14326;50.794;6.060;2023-04-08T11:10:35;42.35;;;21.58;;
26718;SDS011;14326;50.794;6.060;2023-04-08T11:13:09;34.60;;;17.20;;
26718;SDS011;14326;50.794;6.060;2023-04-08T11:15:58;40.17;;;20.40;;
26718;SDS011;14326;50.794;6.060;2023-04-08T11:21:23;39.58;;;20.90;;
26718;SDS011;14326;50.794;6.060;2023-04-08T11:23:53;41.55;;;20.92;;
26718;SDS011;14326;50.794;6.060;2023-04-08T11:26:27;38.55;;;20.77;;
26718;SDS011;14326;50.794;6.060;2023-04-08T11:29:01;40.15;;;19.15;;
26718;SDS011;14326;50.794;6.060;2023-04-08T11:34:37;41.20;;;20.35;;
26718;SDS011;14326;50.794;6.060;2023-04-08T11:37:26;42.42;;;20.33;;
26718;SDS011;14326;50.794;6.060;2023-04-08T11:40:26;40.40;;;20.17;;
26718;SDS011;14326;50.794;6.060;2023-04-08T11:43:07;41.85;;;20.33;;
26718;SDS011;14326;50.794;6.060;2023-04-08T11:45:44;43.28;;;21.48;;
26718;SDS011;14326;50.794;6.060;2023-04-08T11:48:16;40.90;;;21.52;;
26718;SDS011;14326;50.794;6.060;2023-04-08T11:50:43;39.80;;;21.40;;
26718;SDS011;14326;50.794;6.060;2023-04-08T11:53:17;40.40;;;20.55;;
26718;SDS011;14326;50.794;6.060;2023-04-08T11:55:48;51.05;;;25.45;;
26718;SDS011;14326;50.794;6.060;2023-04-08T11:58:40;39.15;;;20.02;;
26718;SDS011;14326;50.794;6.060;2023-04-08T12:01:08;44.75;;;21.17;;
26718;SDS011;14326;50.794;6.060;2023-04-08T12:03:54;43.67;;;21.40;;
26718;SDS011;14326;50.794;6.060;2023-04-08T12:06:49;39.45;;;19.27;;
26718;SDS011;14326;50.794;6.060;2023-04-08T12:09:45;44.47;;;20.83;;
26718;SDS011;14326;50.794;6.060;2023-04-08T12:12:11;41.40;;;20.50;;
26718;SDS011;14326;50.794;6.060;2023-04-08T12:14:38;42.92;;;22.70;;
26718;SDS011;14326;50.794;6.060;2023-04-08T12:17:04;43.05;;;22.42;;
26718;SDS011;14326;50.794;6.060;2023-04-08T12:19:31;44.28;;;21.50;;
26718;SDS011;14326;50.794;6.060;2023-04-08T12:22:04;46.00;;;21.55;;
26718;SDS011;14326;50.794;6.060;2023-04-08T12:24:56;42.78;;;21.13;;
26718;SDS011;14326;50.794;6.060;2023-04-08T12:27:26;41.00;;;21.95;;
26718;SDS011;14326;50.794;6.060;2023-04-08T12:30:17;43.65;;;22.05;;
26718;SDS011;14326;50.794;6.060;2023-04-08T12:32:58;43.47;;;21.85;;
26718;SDS011;14326;50.794;6.060;2023-04-08T12:35:36;44.45;;;20.85;;
26718;SDS011;14326;50.794;6.060;2023-04-08T12:38:03;42.83;;;22.40;;
26718;SDS011;14326;50.794;6.060;2023-04-08T12:40:42;43.67;;;22.60;;
26718;SDS011;14326;50.794;6.060;2023-04-08T12:43:13;43.60;;;22.52;;
26718;SDS011;14326;50.794;6.060;2023-04-08T12:46:03;50.22;;;25.65;;
26718;SDS011;14326;50.794;6.060;2023-04-08T12:48:40;46.72;;;25.23;;
26718;SDS011;14326;50.794;6.060;2023-04-08T12:51:18;44.85;;;24.23;;
26718;SDS011;14326;50.794;6.060;2023-04-08T12:53:54;46.35;;;24.23;;
26718;SDS011;14326;50.794;6.060;2023-04-08T12:56:34;41.92;;;22.80;;
26718;SDS011;14326;50.794;6.060;2023-04-08T13:02:15;47.00;;;25.35;;
26718;SDS011;14326;50.794;6.060;2023-04-08T13:05:02;49.45;;;24.15;;
26718;SDS011;14326;50.794;6.060;2023-04-08T13:07:45;46.75;;;24.48;;
26718;SDS011;14326;50.794;6.060;2023-04-08T13:10:26;46.22;;;23.90;;
26718;SDS011;14326;50.794;6.060;2023-04-08T13:12:56;46.08;;;22.98;;
26718;SDS011;14326;50.794;6.060;2023-04-08T13:15:37;46.83;;;24.03;;
26718;SDS011;14326;50.794;6.060;2023-04-08T13:21:07;42.28;;;23.80;;
26718;SDS011;14326;50.794;6.060;2023-04-08T13:23:43;48.40;;;25.02;;
26718;SDS011;14326;50.794;6.060;2023-04-08T13:26:23;47.90;;;25.73;;
26718;SDS011;14326;50.794;6.060;2023-04-08T13:29:11;49.95;;;26.92;;
26718;SDS011;14326;50.794;6.060;2023-04-08T13:31:53;51.08;;;27.30;;
26718;SDS011;14326;50.794;6.060;2023-04-08T13:34:27;54.47;;;27.70;;
26718;SDS011;14326;50.794;6.060;2023-04-08T13:36:56;54.28;;;28.92;;
26718;SDS011;14326;50.794;6.060;2023-04-08T13:39:27;37.85;;;20.23;;
26718;SDS011;14326;50.794;6.060;2023-04-08T13:41:57;54.10;;;27.58;;
26718;SDS011;14326;50.794;6.060;2023-04-08T13:44:43;49.85;;;26.85;;
26718;SDS011;14326;50.794;6.060;2023-04-08T13:47:10;50.65;;;25.63;;
26718;SDS011;14326;50.794;6.060;2023-04-08T13:49:42;50.17;;;24.95;;
26718;SDS011;14326;50.794;6.060;2023-04-08T13:55:18;43.38;;;22.02;;
26718;SDS011;14326;50.794;6.060;2023-04-08T13:57:47;44.03;;;21.60;;
26718;SDS011;14326;50.794;6.060;2023-04-08T14:00:15;46.53;;;21.05;;
26718;SDS011;14326;50.794;6.060;2023-04-08T14:02:45;42.33;;;21.27;;
26718;SDS011;14326;50.794;6.060;2023-04-08T14:05:14;40.37;;;20.40;;
26718;SDS011;14326;50.794;6.060;2023-04-08T14:07:41;40.50;;;20.85;;
26718;SDS011;14326;50.794;6.060;2023-04-08T14:10:08;40.05;;;19.02;;
26718;SDS011;14326;50.794;6.060;2023-04-08T14:12:38;31.55;;;15.57;;
26718;SDS011;14326;50.794;6.060;2023-04-08T14:15:10;34.90;;;18.45;;
26718;SDS011;14326;50.794;6.060;2023-04-08T14:17:56;34.17;;;17.02;;
26718;SDS011;14326;50.794;6.060;2023-04-08T14:20:35;34.90;;;15.83;;
26718;SDS011;14326;50.794;6.060;2023-04-08T14:23:05;25.98;;;11.80;;
26718;SDS011;14326;50.794;6.060;2023-04-08T14:25:35;28.95;;;12.50;;
26718;SDS011;14326;50.794;6.060;2023-04-08T14:30:56;29.45;;;14.13;;
26718;SDS011;14326;50.794;6.060;2023-04-08T14:33:24;27.80;;;13.32;;
26718;SDS011;14326;50.794;6.060;2023-04-08T14:35:51;26.30;;;13.60;;
26718;SDS011;14326;50.794;6.060;2023-04-08T14:38:29;28.98;;;12.95;;
26718;SDS011;14326;50.794;6.060;2023-04-08T14:40:58;24.83;;;11.80;;
26718;SDS011;14326;50.794;6.060;2023-04-08T14:46:07;23.17;;;10.77;;
26718;SDS011;14326;50.794;6.060;2023-04-08T14:48:34;22.80;;;10.88;;
26718;SDS011;14326;50.794;6.060;2023-04-08T14:53:44;22.70;;;10.57;;
26718;SDS011;14326;50.794;6.060;2023-04-08T14:56:10;22.65;;;10.15;;
26718;SDS011;14326;50.794;6.060;2023-04-08T14:58:42;20.65;;;8.57;;
26718;SDS011;14326;50.794;6.060;2023-04-08T15:01:22;21.65;;;7.85;;
26718;SDS011;14326;50.794;6.060;2023-04-08T15:06:57;23.48;;;9.50;;
26718;SDS011;14326;50.794;6.060;2023-04-08T15:09:24;20.25;;;9.10;;
26718;SDS011;14326;50.794;6.060;2023-04-08T15:12:08;23.95;;;9.70;;
26718;SDS011;14326;50.794;6.060;2023-04-08T15:17:17;22.85;;;10.00;;
26718;SDS011;14326;50.794;6.060;2023-04-08T15:20:03;26.80;;;12.57;;
26718;SDS011;14326;50.794;6.060;2023-04-08T15:22:52;24.35;;;11.85;;
26718;SDS011;14326;50.794;6.060;2023-04-08T15:25:53;26.08;;;12.75;;
26718;SDS011;14326;50.794;6.060;2023-04-08T15:28:55;27.05;;;13.60;;
26718;SDS011;14326;50.794;6.060;2023-04-08T15:31:51;28.08;;;13.85;;
26718;SDS011;14326;50.794;6.060;2023-04-08T15:34:29;25.20;;;12.73;;
26718;SDS011;14326;50.794;6.060;2023-04-08T15:40:39;24.27;;;11.20;;
26718;SDS011;14326;50.794;6.060;2023-04-08T15:43:09;24.70;;;10.93;;
26718;SDS011;14326;50.794;6.060;2023-04-08T15:45:46;24.25;;;10.30;;
26718;SDS011;14326;50.794;6.060;2023-04-08T15:51:47;26.10;;;9.88;;
26718;SDS011;14326;50.794;6.060;2023-04-08T16:03:11;23.80;;;10.30;;
26718;SDS011;14326;50.794;6.060;2023-04-08T16:06:09;25.02;;;10.07;;
26718;SDS011;14326;50.794;6.060;2023-04-08T16:08:56;21.90;;;10.60;;
26718;SDS011;14326;50.794;6.060;2023-04-08T16:14:38;24.00;;;10.75;;
26718;SDS011;14326;50.794;6.060;2023-04-08T16:17:11;21.13;;;9.48;;
26718;SDS011;14326;50.794;6.060;2023-04-08T16:19:45;22.73;;;9.38;;
26718;SDS011;14326;50.794;6.060;2023-04-08T16:22:18;21.63;;;9.73;;
26718;SDS011;14326;50.794;6.060;2023-04-08T16:24:50;21.90;;;9.93;;
26718;SDS011;14326;50.794;6.060;2023-04-08T16:27:27;24.67;;;9.73;;
26718;SDS011;14326;50.794;6.060;2023-04-08T16:30:05;22.13;;;10.00;;
26718;SDS011;14326;50.794;6.060;2023-04-08T16:32:32;16.02;;;6.93;;
26718;SDS011;14326;50.794;6.060;2023-04-08T16:35:02;22.17;;;10.77;;
26718;SDS011;14326;50.794;6.060;2023-04-08T16:37:53;21.27;;;10.10;;
26718;SDS011;14326;50.794;6.060;2023-04-08T16:40:38;22.17;;;9.98;;
26718;SDS011;14326;50.794;6.060;2023-04-08T16:43:05;21.40;;;8.90;;
26718;SDS011;14326;50.794;6.060;2023-04-08T16:45:33;23.40;;;9.23;;
26718;SDS011;14326;50.794;6.060;2023-04-08T16:48:02;21.92;;;8.95;;
26718;SDS011;14326;50.794;6.060;2023-04-08T16:50:44;22.65;;;9.82;;
26718;SDS011;14326;50.794;6.060;2023-04-08T16:53:50;23.35;;;9.85;;
26718;SDS011;14326;50.794;6.060;2023-04-08T16:56:21;22.77;;;10.05;;
26718;SDS011;14326;50.794;6.060;2023-04-08T16:58:52;22.55;;;9.52;;
26718;SDS011;14326;50.794;6.060;2023-04-08T17:01:30;20.75;;;10.05;;
26718;SDS011;14326;50.794;6.060;2023-04-08T17:04:19;22.08;;;10.13;;
26718;SDS011;14326;50.794;6.060;2023-04-08T17:07:07;21.70;;;9.63;;
26718;SDS011;14326;50.794;6.060;2023-04-08T17:09:37;24.42;;;9.85;;
26718;SDS011;14326;50.794;6.060;2023-04-08T17:12:04;22.75;;;10.60;;
26718;SDS011;14326;50.794;6.060;2023-04-08T17:14:39;23.08;;;10.05;;
26718;SDS011;14326;50.794;6.060;2023-04-08T17:17:24;22.50;;;10.50;;
26718;SDS011;14326;50.794;6.060;2023-04-08T17:20:09;21.95;;;10.15;;
26718;SDS011;14326;50.794;6.060;2023-04-08T17:22:53;23.13;;;10.52;;
26718;SDS011;14326;50.794;6.060;2023-04-08T17:25:29;22.15;;;11.32;;
26718;SDS011;14326;50.794;6.060;2023-04-08T17:28:13;23.30;;;11.10;;
26718;SDS011;14326;50.794;6.060;2023-04-08T17:30:40;25.52;;;11.10;;
26718;SDS011;14326;50.794;6.060;2023-04-08T17:33:09;22.58;;;10.68;;
26718;SDS011;14326;50.794;6.060;2023-04-08T17:35:36;22.92;;;10.35;;
26718;SDS011;14326;50.794;6.060;2023-04-08T17:41:03;23.40;;;11.05;;
26718;SDS011;14326;50.794;6.060;2023-04-08T17:43:34;26.23;;;11.07;;
26718;SDS011;14326;50.794;6.060;2023-04-08T17:46:03;25.10;;;11.30;;
26718;SDS011;14326;50.794;6.060;2023-04-08T17:48:31;22.33;;;10.80;;
26718;SDS011;14326;50.794;6.060;2023-04-08T17:50:58;21.58;;;9.88;;